Bryant, Iowa
Current Conditions -  °F | °C
As of 9:15 PM on Thursday 27 Nov 2014 (Local Time) from KCWI Reporting Station
NA  
Wind Chill:   Ceiling: NA
Heat Index:   Visibility: 10mi
Dew Point:   Wind: 0mph
Humidity: 79%   Direction: NA
Pressure: 30.42"   Gusts: NA
Location:  41.96°N, 90.33°W
Report Text: KCWI 280315Z AUTO 00000KT 10SM M14/M17 A3042 RMK AO1
Loading
Personal Weather Stations






























Interactive Weather Map New forecast layout! Learn more

10-Day Weather Forecast

Advertisements
Track Severe Weather on mobile